createdAt,value
2023-02-25T00:02:04.620Z,24.86
2023-02-25T00:04:34.684Z,24.86
2023-02-25T00:07:04.809Z,24.82
2023-02-25T00:09:34.742Z,24.60
2023-02-25T00:12:04.853Z,24.68
2023-02-25T00:14:34.870Z,24.63
2023-02-25T00:17:04.843Z,24.63
2023-02-25T00:19:34.844Z,24.63
2023-02-25T00:22:04.775Z,24.65
2023-02-25T00:24:35.431Z,24.70
2023-02-25T00:27:05.425Z,24.59
2023-02-25T00:29:35.638Z,24.57
2023-02-25T00:32:08.361Z,24.51
2023-02-25T00:34:38.522Z,24.58
2023-02-25T00:37:08.402Z,24.58
2023-02-25T00:39:44.478Z,24.56
2023-02-25T00:42:18.127Z,24.58
2023-02-25T00:44:51.941Z,24.50
2023-02-25T00:47:25.872Z,24.48
2023-02-25T00:49:55.898Z,24.45
2023-02-25T00:52:25.962Z,24.47
2023-02-25T00:54:55.839Z,24.46
2023-02-25T00:57:25.841Z,24.46
2023-02-25T00:59:55.817Z,24.42
2023-02-25T01:02:25.784Z,24.41
2023-02-25T01:04:55.852Z,24.39
2023-02-25T01:07:28.336Z,24.34
2023-02-25T01:10:01.451Z,24.37
2023-02-25T01:12:32.236Z,24.41
2023-02-25T01:15:03.200Z,24.49
2023-02-25T01:17:33.099Z,24.51
2023-02-25T01:20:04.195Z,24.48
2023-02-25T01:22:34.113Z,24.58
2023-02-25T01:25:03.984Z,24.52
2023-02-25T01:27:33.876Z,24.51
2023-02-25T01:30:03.845Z,24.54
2023-02-25T01:32:33.868Z,24.59
2023-02-25T01:35:03.965Z,24.62
2023-02-25T01:37:33.829Z,24.57
2023-02-25T01:40:05.096Z,24.56
2023-02-25T01:42:35.008Z,24.61
2023-02-25T01:45:22.490Z,24.48
2023-02-25T01:48:03.598Z,24.57
2023-02-25T01:50:41.778Z,24.63
2023-02-25T01:53:11.665Z,24.63
2023-02-25T01:55:41.738Z,24.75
2023-02-25T01:58:11.633Z,24.75
2023-02-25T02:00:43.871Z,24.62
2023-02-25T02:03:15.242Z,24.62
2023-02-25T02:05:59.782Z,24.53
2023-02-25T02:08:29.360Z,24.43
2023-02-25T02:10:59.700Z,24.40
2023-02-25T02:13:32.362Z,24.31
2023-02-25T02:16:23.474Z,24.32
2023-02-25T02:18:56.494Z,24.29
2023-02-25T02:21:47.148Z,24.42
2023-02-25T02:24:40.705Z,24.42
2023-02-25T02:27:15.169Z,24.41
2023-02-25T02:30:01.844Z,24.44
2023-02-25T02:32:46.599Z,24.62
2023-02-25T02:35:36.675Z,24.67
2023-02-25T02:38:18.371Z,24.71
2023-02-25T02:41:16.378Z,25.10
2023-02-25T02:43:56.522Z,25.08
2023-02-25T02:46:27.658Z,25.04
2023-02-25T02:49:02.791Z,25.19
2023-02-25T02:51:49.834Z,25.29
2023-02-25T02:54:19.744Z,25.11
2023-02-25T02:56:50.069Z,25.71
2023-02-25T02:59:25.757Z,25.90
2023-02-25T03:02:01.190Z,25.77
2023-02-25T03:04:31.839Z,25.56
2023-02-25T03:07:04.927Z,25.36
2023-02-25T03:09:37.581Z,25.30
2023-02-25T03:12:07.602Z,25.27
2023-02-25T03:14:38.755Z,25.51
2023-02-25T03:17:11.809Z,25.59
2023-02-25T03:19:53.025Z,25.53
2023-02-25T03:22:26.633Z,25.44
2023-02-25T03:25:01.669Z,25.34
2023-02-25T03:27:40.788Z,25.26
2023-02-25T03:30:14.348Z,25.32
2023-02-25T03:32:49.320Z,25.28
2023-02-25T03:35:20.757Z,25.28
2023-02-25T03:37:52.334Z,25.28
2023-02-25T03:40:22.511Z,25.26
2023-02-25T03:42:55.216Z,25.23
2023-02-25T03:45:25.495Z,25.22
2023-02-25T03:47:57.759Z,25.22
2023-02-25T03:50:34.505Z,25.28
2023-02-25T03:53:04.923Z,25.35
2023-02-25T03:55:34.926Z,25.29
2023-02-25T03:58:04.741Z,25.21
2023-02-25T04:00:35.677Z,25.21
2023-02-25T04:03:05.708Z,25.23
2023-02-25T04:05:36.839Z,25.24
2023-02-25T04:08:08.092Z,25.21
2023-02-25T04:10:38.177Z,25.16
2023-02-25T04:13:08.015Z,25.19
2023-02-25T04:15:37.887Z,25.19
2023-02-25T04:18:07.951Z,25.18
2023-02-25T04:20:37.817Z,25.15
2023-02-25T04:23:07.739Z,25.13
2023-02-25T04:25:38.302Z,25.12
2023-02-25T04:28:08.256Z,25.13
2023-02-25T04:30:38.248Z,25.11
2023-02-25T04:33:08.294Z,25.12
2023-02-25T04:35:38.145Z,25.09
2023-02-25T04:38:09.192Z,25.07
2023-02-25T04:40:39.331Z,25.05
2023-02-25T04:43:10.564Z,25.05
2023-02-25T04:45:40.379Z,25.05
2023-02-25T04:48:10.376Z,25.00
2023-02-25T04:50:40.424Z,25.01
2023-02-25T04:53:10.260Z,24.99
2023-02-25T04:55:40.237Z,25.00
2023-02-25T04:58:10.353Z,24.99
2023-02-25T05:00:42.493Z,24.97
2023-02-25T05:03:12.388Z,24.95
2023-02-25T05:05:42.261Z,24.94
2023-02-25T05:08:12.094Z,24.95
2023-02-25T05:10:42.053Z,24.92
2023-02-25T05:13:11.912Z,24.93
2023-02-25T05:15:41.754Z,24.93
2023-02-25T05:18:11.824Z,24.92
2023-02-25T05:20:47.936Z,24.91
2023-02-25T05:23:17.877Z,24.88
2023-02-25T05:25:47.806Z,24.86
2023-02-25T05:28:17.815Z,24.87
2023-02-25T05:30:47.795Z,24.83
2023-02-25T05:33:18.453Z,24.84
2023-02-25T05:35:48.337Z,24.84
2023-02-25T05:38:18.252Z,24.85
2023-02-25T05:40:48.127Z,24.86
2023-02-25T05:43:17.963Z,24.85
2023-02-25T05:45:49.172Z,24.86
2023-02-25T05:48:19.054Z,24.88
2023-02-25T05:50:50.233Z,24.86
2023-02-25T05:53:20.664Z,24.89
2023-02-25T05:55:51.013Z,24.87
2023-02-25T05:58:20.863Z,24.90
2023-02-25T06:00:50.783Z,24.88
2023-02-25T06:03:20.718Z,24.91
2023-02-25T06:05:50.612Z,24.91
2023-02-25T06:08:20.450Z,24.89
2023-02-25T06:10:50.390Z,24.92
2023-02-25T06:13:20.311Z,24.89
2023-02-25T06:15:52.282Z,24.88
2023-02-25T06:18:22.282Z,24.90
2023-02-25T06:20:55.038Z,24.90
2023-02-25T06:23:24.867Z,24.91
2023-02-25T06:25:54.757Z,24.93
2023-02-25T06:28:26.817Z,24.92
2023-02-25T06:30:56.925Z,24.91
2023-02-25T06:33:27.066Z,24.89
2023-02-25T06:35:57.054Z,24.91
2023-02-25T06:38:26.951Z,24.98
2023-02-25T06:40:56.866Z,24.96
2023-02-25T06:43:29.146Z,25.02
2023-02-25T06:45:59.728Z,25.00
2023-02-25T06:48:30.805Z,24.98
2023-02-25T06:51:02.670Z,24.98
2023-02-25T06:53:33.370Z,24.97
2023-02-25T06:56:03.978Z,24.99
2023-02-25T06:58:34.100Z,25.02
2023-02-25T07:01:05.353Z,25.01
2023-02-25T07:03:35.695Z,25.04
2023-02-25T07:06:06.123Z,25.04
2023-02-25T07:08:36.365Z,25.08
2023-02-25T07:11:22.535Z,25.08
2023-02-25T07:13:52.412Z,25.09
2023-02-25T07:16:23.228Z,25.10
2023-02-25T07:18:55.855Z,25.08
2023-02-25T07:21:24.962Z,25.13
2023-02-25T07:23:54.916Z,25.11
2023-02-25T07:26:26.281Z,25.10
2023-02-25T07:28:57.753Z,25.11
2023-02-25T07:31:28.162Z,25.13
2023-02-25T07:33:58.391Z,25.12
2023-02-25T07:36:29.250Z,25.14
2023-02-25T07:39:07.915Z,25.17
2023-02-25T07:41:38.001Z,25.17
2023-02-25T07:44:07.914Z,25.17
2023-02-25T07:46:37.753Z,25.19
2023-02-25T07:49:07.685Z,25.18
2023-02-25T07:51:37.496Z,25.19
2023-02-25T07:54:07.458Z,25.20
2023-02-25T07:56:37.368Z,25.21
2023-02-25T07:59:07.211Z,25.21
2023-02-25T08:01:38.562Z,25.20
2023-02-25T08:04:09.908Z,24.97
2023-02-25T08:06:40.488Z,24.97
2023-02-25T08:09:11.790Z,25.22
2023-02-25T08:11:41.788Z,25.21
2023-02-25T08:14:11.651Z,25.28
2023-02-25T08:16:41.488Z,25.35
2023-02-25T08:19:11.348Z,25.40
2023-02-25T08:21:41.260Z,25.43
2023-02-25T08:24:11.244Z,25.49
2023-02-25T08:26:41.877Z,25.44
2023-02-25T08:29:11.718Z,25.45
2023-02-25T08:31:41.791Z,25.45
2023-02-25T08:34:12.558Z,25.45
2023-02-25T08:36:42.500Z,25.45
2023-02-25T08:39:12.368Z,25.44
2023-02-25T08:41:42.292Z,25.43
2023-02-25T08:44:12.168Z,25.43
2023-02-25T08:46:42.137Z,25.43
2023-02-25T08:49:12.459Z,25.43
2023-02-25T08:51:42.307Z,25.42
2023-02-25T08:54:13.748Z,25.39
2023-02-25T08:56:45.163Z,25.41
2023-02-25T08:59:16.507Z,25.42
2023-02-25T09:01:46.443Z,25.39
2023-02-25T09:04:20.971Z,25.32
2023-02-25T09:06:50.036Z,25.31
2023-02-25T09:09:20.079Z,25.27
2023-02-25T09:11:49.954Z,25.21
2023-02-25T09:14:19.831Z,25.21
2023-02-25T09:16:51.236Z,25.18
2023-02-25T09:19:21.510Z,25.18
2023-02-25T09:21:51.327Z,25.20
2023-02-25T09:24:21.163Z,25.19
2023-02-25T09:26:50.976Z,25.17
2023-02-25T09:29:20.794Z,25.19
2023-02-25T09:31:50.975Z,25.17
2023-02-25T09:34:21.120Z,25.18
2023-02-25T09:36:50.963Z,25.18
2023-02-25T09:39:20.649Z,25.18
2023-02-25T09:42:01.017Z,25.17
2023-02-25T09:44:45.182Z,25.18
2023-02-25T09:47:26.759Z,25.16
2023-02-25T09:49:59.625Z,25.17
2023-02-25T09:52:35.468Z,25.17
2023-02-25T09:55:14.524Z,25.17
2023-02-25T09:57:44.448Z,25.18
2023-02-25T10:00:19.273Z,25.18
2023-02-25T10:02:54.821Z,25.19
2023-02-25T10:05:34.133Z,25.21
2023-02-25T10:08:17.423Z,25.24
2023-02-25T10:11:04.797Z,25.22
2023-02-25T10:13:55.058Z,25.25
2023-02-25T10:16:36.911Z,25.26
2023-02-25T10:19:35.239Z,25.25
2023-02-25T10:22:17.576Z,25.26
2023-02-25T10:25:02.204Z,25.23
2023-02-25T10:27:33.196Z,25.28
2023-02-25T10:30:18.760Z,25.26
2023-02-25T10:32:49.763Z,25.23
2023-02-25T10:35:27.534Z,25.25
2023-02-25T10:37:57.369Z,25.27
2023-02-25T10:40:30.901Z,25.28
2023-02-25T10:43:03.437Z,25.26
2023-02-25T10:45:33.958Z,25.30
2023-02-25T10:48:16.113Z,25.26
2023-02-25T10:50:46.588Z,25.28
2023-02-25T10:53:19.946Z,25.29
2023-02-25T10:55:53.534Z,25.32
2023-02-25T10:58:35.444Z,25.38
2023-02-25T11:01:19.112Z,25.39
2023-02-25T11:04:05.261Z,25.35
2023-02-25T11:06:38.906Z,25.33
2023-02-25T11:09:23.460Z,25.34
2023-02-25T11:12:01.311Z,25.36
2023-02-25T11:14:34.659Z,25.32
2023-02-25T11:17:16.344Z,25.27
2023-02-25T11:19:48.313Z,25.27
2023-02-25T11:22:23.223Z,25.24
2023-02-25T11:25:03.726Z,25.21
2023-02-25T11:27:41.908Z,25.23
2023-02-25T11:30:17.592Z,25.23
2023-02-25T11:32:49.888Z,25.21
2023-02-25T11:35:22.084Z,25.21
2023-02-25T11:37:53.398Z,25.24
2023-02-25T11:40:30.791Z,25.29
2023-02-25T11:43:09.026Z,25.31
2023-02-25T11:45:41.176Z,25.32
2023-02-25T11:48:22.698Z,25.32
2023-02-25T11:51:04.048Z,25.38
2023-02-25T11:53:54.026Z,25.37
2023-02-25T11:56:46.962Z,25.39
2023-02-25T11:59:41.732Z,25.43
2023-02-25T12:02:42.806Z,25.46
2023-02-25T12:05:40.903Z,25.45
2023-02-25T12:08:19.612Z,25.71
2023-02-25T12:10:57.983Z,25.96
2023-02-25T12:13:51.751Z,26.09
2023-02-25T12:16:24.881Z,26.17
2023-02-25T12:19:30.704Z,26.22
2023-02-25T12:22:16.549Z,26.06
2023-02-25T12:25:05.231Z,25.81
2023-02-25T12:27:55.528Z,25.63
2023-02-25T12:30:30.863Z,25.74
2023-02-25T12:33:40.494Z,25.92
2023-02-25T12:36:47.386Z,25.95
2023-02-25T12:39:28.767Z,26.04
2023-02-25T12:42:13.272Z,25.76
2023-02-25T12:44:51.982Z,25.63
2023-02-25T12:47:25.920Z,25.54
2023-02-25T12:50:01.417Z,25.46
2023-02-25T12:52:35.807Z,25.61
2023-02-25T12:55:29.518Z,25.70
2023-02-25T12:58:29.207Z,25.59
2023-02-25T13:01:13.478Z,25.43
2023-02-25T13:04:02.219Z,25.40
2023-02-25T13:06:58.478Z,25.34
2023-02-25T13:09:42.942Z,25.29
2023-02-25T13:12:33.731Z,25.46
2023-02-25T13:15:15.052Z,25.42
2023-02-25T13:18:07.746Z,25.36
2023-02-25T13:20:48.940Z,25.33
2023-02-25T13:23:46.236Z,25.26
2023-02-25T13:26:33.820Z,25.26
2023-02-25T13:29:09.435Z,25.16
2023-02-25T13:31:59.917Z,25.18
2023-02-25T13:34:48.494Z,25.16
2023-02-25T13:37:37.270Z,25.15
2023-02-25T13:40:35.224Z,25.08
2023-02-25T13:43:40.650Z,25.07
2023-02-25T13:46:17.442Z,25.07
2023-02-25T13:48:58.792Z,24.98
2023-02-25T13:52:02.516Z,24.96
2023-02-25T13:54:38.554Z,24.96
2023-02-25T13:57:29.006Z,24.99
2023-02-25T14:00:21.022Z,24.93
2023-02-25T14:03:02.275Z,24.93
2023-02-25T14:06:02.583Z,24.96
2023-02-25T14:09:06.739Z,24.90
2023-02-25T14:12:11.714Z,24.84
2023-02-25T14:14:32.351Z,24.87
2023-02-25T14:17:13.941Z,24.81
2023-02-25T14:19:55.473Z,24.82
2023-02-25T14:22:53.821Z,24.90
2023-02-25T14:25:32.213Z,24.88
2023-02-25T14:28:13.471Z,24.75
2023-02-25T14:31:05.766Z,24.77
2023-02-25T14:33:58.438Z,24.82
2023-02-25T14:36:33.874Z,24.78
2023-02-25T14:39:09.313Z,24.84
2023-02-25T14:42:16.036Z,24.89
2023-02-25T14:44:48.866Z,24.86
2023-02-25T14:47:21.381Z,24.92
2023-02-25T14:49:56.824Z,24.94
2023-02-25T14:52:38.454Z,24.92
2023-02-25T14:55:26.242Z,24.91
2023-02-25T14:58:17.087Z,24.90
2023-02-25T15:00:56.257Z,24.86
2023-02-25T15:03:48.221Z,24.75
2023-02-25T15:06:47.368Z,24.68
2023-02-25T15:09:51.409Z,24.68
2023-02-25T15:12:35.818Z,24.74
2023-02-25T15:15:27.041Z,24.74
2023-02-25T15:18:32.654Z,24.77
2023-02-25T15:21:04.468Z,24.77
2023-02-25T15:23:46.815Z,24.64
2023-02-25T15:26:28.308Z,24.67
2023-02-25T15:28:58.336Z,24.68
2023-02-25T15:31:34.928Z,24.74
2023-02-25T15:34:26.544Z,24.75
2023-02-25T15:36:59.098Z,24.79
2023-02-25T15:39:46.799Z,24.73
2023-02-25T15:42:17.132Z,24.67
2023-02-25T15:44:47.377Z,24.65
2023-02-25T15:47:27.782Z,24.67
2023-02-25T15:49:58.234Z,24.70
2023-02-25T15:52:57.345Z,24.73
2023-02-25T15:55:35.789Z,24.76
2023-02-25T15:58:07.353Z,24.73
2023-02-25T16:00:52.645Z,24.83
2023-02-25T16:03:37.585Z,24.82
2023-02-25T16:06:09.348Z,24.88
2023-02-25T16:08:47.829Z,25.00
2023-02-25T16:11:42.181Z,25.01
2023-02-25T16:14:32.544Z,25.12
2023-02-25T16:17:11.508Z,25.14
2023-02-25T16:19:42.285Z,25.10
2023-02-25T16:22:20.025Z,25.10
2023-02-25T16:24:51.829Z,25.15
2023-02-25T16:27:27.433Z,25.20
2023-02-25T16:30:06.384Z,25.23
2023-02-25T16:32:39.066Z,25.24
2023-02-25T16:35:26.714Z,25.23
2023-02-25T16:38:26.492Z,25.23
2023-02-25T16:40:56.463Z,25.19
2023-02-25T16:43:31.422Z,25.21
2023-02-25T16:46:05.760Z,25.17
2023-02-25T16:48:40.988Z,25.23
2023-02-25T16:51:16.621Z,25.24
2023-02-25T16:53:47.306Z,25.23
2023-02-25T16:56:24.244Z,25.23
2023-02-25T16:59:08.445Z,25.12
2023-02-25T17:01:38.232Z,25.19
2023-02-25T17:04:31.852Z,25.25
2023-02-25T17:07:23.098Z,25.23
2023-02-25T17:09:54.068Z,25.25
2023-02-25T17:12:39.422Z,25.26
2023-02-25T17:15:12.101Z,25.20
2023-02-25T17:17:42.327Z,25.18
2023-02-25T17:20:17.782Z,25.17
2023-02-25T17:22:47.726Z,25.17
2023-02-25T17:25:18.343Z,25.20
2023-02-25T17:27:49.502Z,25.21
2023-02-25T17:30:45.206Z,25.20
2023-02-25T17:33:26.908Z,25.16
2023-02-25T17:36:03.930Z,25.14
2023-02-25T17:38:34.463Z,25.12
2023-02-25T17:41:04.438Z,25.12
2023-02-25T17:43:39.068Z,25.13
2023-02-25T17:46:34.504Z,25.18
2023-02-25T17:49:08.337Z,25.19
2023-02-25T17:51:39.601Z,25.13
2023-02-25T17:54:14.594Z,25.13
2023-02-25T17:56:46.709Z,25.08
2023-02-25T17:59:19.280Z,25.09
2023-02-25T18:01:50.731Z,25.09
2023-02-25T18:04:29.251Z,25.13
2023-02-25T18:06:59.224Z,25.17
2023-02-25T18:09:40.046Z,25.17
2023-02-25T18:12:14.047Z,25.18
2023-02-25T18:14:46.390Z,25.31
2023-02-25T18:17:26.478Z,25.35
2023-02-25T18:19:57.688Z,25.40
2023-02-25T18:22:39.149Z,25.45
2023-02-25T18:25:11.846Z,25.47
2023-02-25T18:27:41.671Z,25.48
2023-02-25T18:30:19.589Z,25.52
2023-02-25T18:32:49.467Z,25.59
2023-02-25T18:35:19.532Z,25.67
2023-02-25T18:37:50.343Z,25.66
2023-02-25T18:40:25.764Z,25.61
2023-02-25T18:42:55.676Z,25.61
2023-02-25T18:45:26.169Z,25.63
2023-02-25T18:47:59.831Z,25.60
2023-02-25T18:50:31.129Z,25.63
2023-02-25T18:53:01.563Z,25.65
2023-02-25T18:55:32.953Z,25.69
2023-02-25T18:58:05.037Z,25.63
2023-02-25T19:00:35.666Z,25.58
2023-02-25T19:03:07.430Z,25.57
2023-02-25T19:05:37.539Z,25.56
2023-02-25T19:08:15.737Z,25.57
2023-02-25T19:10:45.646Z,25.58
2023-02-25T19:13:20.801Z,25.58
2023-02-25T19:15:50.951Z,25.60
2023-02-25T19:18:20.911Z,25.61
2023-02-25T19:20:50.762Z,25.59
2023-02-25T19:23:20.626Z,25.57
2023-02-25T19:25:51.779Z,25.54
2023-02-25T19:28:21.621Z,25.53
2023-02-25T19:30:51.508Z,25.53
2023-02-25T19:33:21.444Z,25.55
2023-02-25T19:35:51.365Z,25.55
2023-02-25T19:38:21.320Z,25.54
2023-02-25T19:40:51.198Z,25.55
2023-02-25T19:43:21.030Z,25.54
2023-02-25T19:45:52.324Z,25.54
2023-02-25T19:48:22.376Z,25.54
2023-02-25T19:50:52.194Z,25.56
2023-02-25T19:53:22.060Z,25.56
2023-02-25T19:55:51.989Z,25.58
2023-02-25T19:58:21.830Z,25.56
2023-02-25T20:00:51.761Z,25.55
2023-02-25T20:03:21.779Z,25.57
2023-02-25T20:05:51.645Z,25.58
2023-02-25T20:08:21.483Z,25.58
2023-02-25T20:10:51.434Z,25.59
2023-02-25T20:13:21.310Z,25.58
2023-02-25T20:15:51.218Z,25.60
2023-02-25T20:18:21.173Z,25.59
2023-02-25T20:20:51.087Z,25.67
2023-02-25T20:23:21.022Z,25.67
2023-02-25T20:25:50.924Z,25.66
2023-02-25T20:28:22.309Z,25.71
2023-02-25T20:30:52.167Z,25.76
2023-02-25T20:33:22.150Z,25.81
2023-02-25T20:35:52.057Z,25.84
2023-02-25T20:38:38.667Z,25.85
2023-02-25T20:41:08.780Z,25.90
2023-02-25T20:43:38.701Z,25.92
2023-02-25T20:48:40.108Z,25.99
2023-02-25T20:51:10.929Z,25.98
2023-02-25T20:53:42.615Z,25.99
2023-02-25T20:56:35.356Z,26.00
2023-02-25T20:59:05.703Z,26.00
2023-02-25T21:01:55.422Z,26.01
2023-02-25T21:04:27.855Z,26.02
2023-02-25T21:06:58.142Z,26.04
2023-02-25T21:09:28.954Z,26.02
2023-02-25T21:11:59.763Z,26.03
2023-02-25T21:14:30.761Z,26.01
2023-02-25T21:17:02.004Z,25.95
2023-02-25T21:19:37.675Z,25.94
2023-02-25T21:22:06.044Z,25.93
2023-02-25T21:24:41.489Z,25.93
2023-02-25T21:27:12.900Z,25.93
2023-02-25T21:29:43.241Z,25.95
2023-02-25T21:32:16.509Z,25.96
2023-02-25T21:34:46.993Z,25.96
2023-02-25T21:37:18.922Z,25.95
2023-02-25T21:39:50.313Z,25.93
2023-02-25T21:42:20.630Z,25.89
2023-02-25T21:44:51.032Z,25.89
2023-02-25T21:47:23.465Z,25.87
2023-02-25T21:49:55.068Z,25.91
2023-02-25T21:52:31.977Z,25.92
2023-02-25T21:55:06.614Z,25.93
2023-02-25T21:57:39.284Z,25.91
2023-02-25T22:00:13.804Z,25.91
2023-02-25T22:02:45.841Z,25.88
2023-02-25T22:05:19.983Z,25.88
2023-02-25T22:07:50.228Z,25.87
2023-02-25T22:10:22.314Z,25.86
2023-02-25T22:12:53.720Z,25.88
2023-02-25T22:15:24.170Z,25.87
2023-02-25T22:17:54.045Z,25.87
2023-02-25T22:20:25.143Z,25.90
2023-02-25T22:23:01.027Z,25.90
2023-02-25T22:25:33.058Z,25.88
2023-02-25T22:28:05.342Z,25.86
2023-02-25T22:30:39.379Z,25.89
2023-02-25T22:33:18.533Z,25.90
2023-02-25T22:35:56.595Z,25.90
2023-02-25T22:38:30.756Z,25.90
2023-02-25T22:41:07.790Z,25.91
2023-02-25T22:43:42.900Z,25.95
2023-02-25T22:46:17.313Z,26.02
2023-02-25T22:48:49.708Z,26.11
2023-02-25T22:51:33.722Z,26.18
2023-02-25T22:54:05.569Z,26.24
2023-02-25T22:56:58.779Z,26.25
2023-02-25T22:59:28.815Z,26.20
2023-02-25T23:02:00.091Z,26.29
2023-02-25T23:04:29.953Z,26.38
2023-02-25T23:06:59.832Z,26.43
2023-02-25T23:09:29.707Z,26.45
2023-02-25T23:12:00.644Z,26.41
2023-02-25T23:14:30.524Z,26.40
2023-02-25T23:17:00.389Z,26.38
2023-02-25T23:19:30.221Z,26.40
2023-02-25T23:22:00.195Z,26.44
2023-02-25T23:24:32.104Z,26.51
2023-02-25T23:27:02.052Z,26.39
2023-02-25T23:29:34.510Z,26.34
2023-02-25T23:32:05.352Z,26.28
2023-02-25T23:34:36.324Z,26.27
2023-02-25T23:37:06.385Z,26.28
2023-02-25T23:39:36.364Z,26.27
2023-02-25T23:42:06.536Z,26.27
2023-02-25T23:44:37.615Z,26.28
2023-02-25T23:47:07.511Z,26.28
2023-02-25T23:49:37.459Z,26.29
2023-02-25T23:52:07.547Z,26.29
2023-02-25T23:54:37.366Z,26.26
2023-02-25T23:57:07.415Z,26.23
2023-02-25T23:59:37.354Z,26.24
